Baraga, MI

4:46 AM EST on December 03, 2016 (GMT -0500)
Indian Cemetery Road | | Change Station

Elev 830 ft 46.78 °N, 88.41 °W | Updated 4 seconds ago

Overcast
Overcast
30.7 °F
Feels Like 31 °F
N
2.7
Wind Variable Wind from WSW

Today
High -- | Low -- °F
--% Chance of Precip.
Yesterday
High -- | Low -- °F
Precip. -- in
Pressure 30.26 in
Visibility 8.0 miles
Clouds Overcast 2100 ft
Windchill 31 °F
Dew Point 30 °F
Humidity 99%
Rainfall 0.27 in
Snow Depth Not available.
8:21 AM 5:06 PM
Waxing Crescent, 14% visible
METAR KCMX 030853Z AUTO 00000KT 8SM OVC021 00/M02 A3022 RMK AO2 SNE25 SLP247 P0000 60000 T00001017 53005
Pressure 30.26 in
Visibility 8.0 miles
Clouds Overcast 2100 ft
Windchill 31 °F
Dew Point 30 °F
Humidity 99%
Rainfall 0.27 in
Snow Depth Not available.
8:21 AM 5:06 PM
Waxing Crescent, 14% visible
METAR KCMX 030853Z AUTO 00000KT 8SM OVC021 00/M02 A3022 RMK AO2 SNE25 SLP247 P0000 60000 T00001017 53005

10-Day Weather Forecast

Almanac

Astronomy

Dec. 03, 2016 Rise Set
Actual Time
Civil Twilight
Nautical Twilight
Astronomical Twilight
Moon
Length of Visible Light
Length of Day
Tomorrow will be .
, % of the Moon is Illuminated

Today's Extremes

State Highs State Lows

Community

WunderPhotos

Upload Photos

1,955,434 photos uploaded!

WunderBlog® & News

Nearby

Air Quality

  Air Quality AQ Index Pollutant
Not available.

Snow Depth

Station Depth Elevation

Earthquake Activity

City Distance Mag. Time & Date
Minimum magnitude displayed is 2.5.

Coastal Water Temperatures

Place Temperature

Stations

Nearby Weather Stations

Station Location Temp. Windchill Dew Point Humidity Wind Precip. Elev Updated Type
                   

Watches & Warnings

There are currently no watches in effect.